sensor_id;sensor_type;location;lat;lon;timestamp;pressure;altitude;pressure_sealevel;temperature;humidity
75886;BME280;64561;44.018;10.144;2023-04-24T00:01:56;100898.03;;;16.17;86.97
75886;BME280;64561;44.018;10.144;2023-04-24T00:04:22;100892.00;;;16.13;87.15
75886;BME280;64561;44.018;10.144;2023-04-24T00:06:52;100891.16;;;16.13;87.60
75886;BME280;64561;44.018;10.144;2023-04-24T00:09:24;100888.56;;;16.14;87.26
75886;BME280;64561;44.018;10.144;2023-04-24T00:11:50;100892.88;;;16.17;87.63
75886;BME280;64561;44.018;10.144;2023-04-24T00:14:17;100887.69;;;16.15;87.22
75886;BME280;64561;44.018;10.144;2023-04-24T00:16:44;100891.16;;;16.17;87.10
75886;BME280;64561;44.018;10.144;2023-04-24T00:19:11;100880.84;;;16.16;87.23
75886;BME280;64561;44.018;10.144;2023-04-24T00:21:39;100882.53;;;16.14;87.09
75886;BME280;64561;44.018;10.144;2023-04-24T00:24:06;100903.19;;;16.17;87.22
75886;BME280;64561;44.018;10.144;2023-04-24T00:26:35;100894.59;;;16.13;87.43
75886;BME280;64561;44.018;10.144;2023-04-24T00:29:02;100879.97;;;16.14;87.46
75886;BME280;64561;44.018;10.144;2023-04-24T00:31:29;100878.25;;;16.13;87.45
75886;BME280;64561;44.018;10.144;2023-04-24T00:33:56;100885.97;;;16.14;87.01
75886;BME280;64561;44.018;10.144;2023-04-24T00:36:22;100882.53;;;16.17;86.84
75886;BME280;64561;44.018;10.144;2023-04-24T00:38:49;100878.25;;;16.16;86.20
75886;BME280;64561;44.018;10.144;2023-04-24T00:41:16;100878.25;;;16.16;86.14
75886;BME280;64561;44.018;10.144;2023-04-24T00:43:43;100866.19;;;16.15;86.25
75886;BME280;64561;44.018;10.144;2023-04-24T00:46:10;100859.28;;;16.15;85.86
75886;BME280;64561;44.018;10.144;2023-04-24T00:48:41;100846.38;;;16.09;86.36
75886;BME280;64561;44.018;10.144;2023-04-24T00:51:08;100851.53;;;16.09;86.43
75886;BME280;64561;44.018;10.144;2023-04-24T00:53:35;100850.69;;;16.10;86.39
75886;BME280;64561;44.018;10.144;2023-04-24T00:56:02;100850.69;;;16.09;86.65
75886;BME280;64561;44.018;10.144;2023-04-24T00:58:29;100837.78;;;16.10;86.75
75886;BME280;64561;44.018;10.144;2023-04-24T01:00:58;100842.97;;;16.13;86.68
75886;BME280;64561;44.018;10.144;2023-04-24T01:03:29;100828.31;;;16.05;86.43
75886;BME280;64561;44.018;10.144;2023-04-24T01:05:57;100829.19;;;16.10;86.60
75886;BME280;64561;44.018;10.144;2023-04-24T01:08:24;100824.88;;;16.10;86.55
75886;BME280;64561;44.018;10.144;2023-04-24T01:10:53;100808.53;;;16.08;86.34
75886;BME280;64561;44.018;10.144;2023-04-24T01:13:20;100811.13;;;16.07;86.82
75886;BME280;64561;44.018;10.144;2023-04-24T01:15:48;100809.38;;;16.03;86.79
75886;BME280;64561;44.018;10.144;2023-04-24T01:18:15;100811.97;;;16.04;86.77
75886;BME280;64561;44.018;10.144;2023-04-24T01:20:43;100804.22;;;16.01;86.80
75886;BME280;64561;44.018;10.144;2023-04-24T01:23:11;100805.06;;;15.98;86.95
75886;BME280;64561;44.018;10.144;2023-04-24T01:25:38;100806.78;;;16.06;86.67
75886;BME280;64561;44.018;10.144;2023-04-24T01:28:05;100795.63;;;15.97;87.53
75886;BME280;64561;44.018;10.144;2023-04-24T01:30:32;100789.59;;;15.89;87.59
75886;BME280;64561;44.018;10.144;2023-04-24T01:32:59;100783.56;;;15.80;88.12
75886;BME280;64561;44.018;10.144;2023-04-24T01:35:27;100802.44;;;15.82;87.83
75886;BME280;64561;44.018;10.144;2023-04-24T01:37:54;100804.16;;;15.75;87.90
75886;BME280;64561;44.018;10.144;2023-04-24T01:40:21;100802.44;;;15.75;88.54
75886;BME280;64561;44.018;10.144;2023-04-24T01:42:48;100794.69;;;15.72;88.77
75886;BME280;64561;44.018;10.144;2023-04-24T01:45:15;100810.19;;;15.77;88.98
75886;BME280;64561;44.018;10.144;2023-04-24T01:47:42;100817.06;;;15.81;89.22
75886;BME280;64561;44.018;10.144;2023-04-24T01:50:09;100825.66;;;15.78;89.27
75886;BME280;64561;44.018;10.144;2023-04-24T01:52:38;100829.09;;;15.79;89.77
75886;BME280;64561;44.018;10.144;2023-04-24T01:55:05;100845.47;;;15.84;89.77
75886;BME280;64561;44.018;10.144;2023-04-24T01:57:33;100843.75;;;15.83;89.65
75886;BME280;64561;44.018;10.144;2023-04-24T02:00:00;100842.91;;;15.83;89.70
75886;BME280;64561;44.018;10.144;2023-04-24T02:02:28;100835.16;;;15.86;89.67
75886;BME280;64561;44.018;10.144;2023-04-24T02:04:57;100817.94;;;15.82;89.74
75886;BME280;64561;44.018;10.144;2023-04-24T02:07:24;100816.22;;;15.84;89.07
75886;BME280;64561;44.018;10.144;2023-04-24T02:09:51;100822.22;;;15.75;88.62
75886;BME280;64561;44.018;10.144;2023-04-24T02:12:17;100829.97;;;15.73;89.29
75886;BME280;64561;44.018;10.144;2023-04-24T02:14:44;100838.56;;;15.71;89.40
75886;BME280;64561;44.018;10.144;2023-04-24T02:17:11;100820.50;;;15.74;89.16
75886;BME280;64561;44.018;10.144;2023-04-24T02:19:39;100829.09;;;15.71;89.19
75886;BME280;64561;44.018;10.144;2023-04-24T02:22:06;100820.47;;;15.65;89.24
75886;BME280;64561;44.018;10.144;2023-04-24T02:24:33;100802.41;;;15.62;89.34
75886;BME280;64561;44.018;10.144;2023-04-24T02:27:00;100797.25;;;15.62;89.66
75886;BME280;64561;44.018;10.144;2023-04-24T02:29:29;100821.31;;;15.62;89.62
75886;BME280;64561;44.018;10.144;2023-04-24T02:31:56;100828.19;;;15.66;89.60
75886;BME280;64561;44.018;10.144;2023-04-24T02:34:23;100823.03;;;15.66;89.82
75886;BME280;64561;44.018;10.144;2023-04-24T02:36:51;100835.97;;;15.68;89.67
75886;BME280;64561;44.018;10.144;2023-04-24T02:39:20;100836.81;;;15.70;89.84
75886;BME280;64561;44.018;10.144;2023-04-24T02:41:47;100846.28;;;15.72;89.28
75886;BME280;64561;44.018;10.144;2023-04-24T02:44:15;100838.59;;;15.77;88.32
75886;BME280;64561;44.018;10.144;2023-04-24T02:46:43;100817.06;;;15.72;88.50
75886;BME280;64561;44.018;10.144;2023-04-24T02:49:11;100826.47;;;15.65;89.41
75886;BME280;64561;44.018;10.144;2023-04-24T02:51:38;100832.47;;;15.64;89.60
75886;BME280;64561;44.018;10.144;2023-04-24T02:54:08;100815.28;;;15.60;89.75
75886;BME280;64561;44.018;10.144;2023-04-24T02:56:38;100805.81;;;15.61;90.24
75886;BME280;64561;44.018;10.144;2023-04-24T02:59:06;100809.25;;;15.64;89.45
75886;BME280;64561;44.018;10.144;2023-04-24T03:01:33;100799.00;;;15.69;88.12
75886;BME280;64561;44.018;10.144;2023-04-24T03:04:01;100792.91;;;15.61;88.17
75886;BME280;64561;44.018;10.144;2023-04-24T03:06:28;100798.09;;;15.59;88.85
75886;BME280;64561;44.018;10.144;2023-04-24T03:08:55;100795.50;;;15.67;88.51
75886;BME280;64561;44.018;10.144;2023-04-24T03:11:22;100793.78;;;15.63;87.87
75886;BME280;64561;44.018;10.144;2023-04-24T03:13:48;100772.28;;;15.64;87.56
75886;BME280;64561;44.018;10.144;2023-04-24T03:16:15;100768.88;;;15.65;86.87
75886;BME280;64561;44.018;10.144;2023-04-24T03:18:42;100761.94;;;15.58;87.36
75886;BME280;64561;44.018;10.144;2023-04-24T03:21:09;100765.41;;;15.57;87.55
75886;BME280;64561;44.018;10.144;2023-04-24T03:23:36;100755.94;;;15.54;87.60
75886;BME280;64561;44.018;10.144;2023-04-24T03:26:03;100746.47;;;15.50;87.98
75886;BME280;64561;44.018;10.144;2023-04-24T03:28:30;100749.06;;;15.53;88.19
75886;BME280;64561;44.018;10.144;2023-04-24T03:31:02;100747.34;;;15.50;88.28
75886;BME280;64561;44.018;10.144;2023-04-24T03:33:33;100734.44;;;15.53;88.52
75886;BME280;64561;44.018;10.144;2023-04-24T03:36:01;100733.59;;;15.58;88.73
75886;BME280;64561;44.018;10.144;2023-04-24T03:38:35;100732.72;;;15.60;87.51
75886;BME280;64561;44.018;10.144;2023-04-24T03:41:21;100730.16;;;15.52;88.02
75886;BME280;64561;44.018;10.144;2023-04-24T03:43:53;100736.19;;;15.56;87.28
75886;BME280;64561;44.018;10.144;2023-04-24T03:46:20;100735.31;;;15.55;87.78
75886;BME280;64561;44.018;10.144;2023-04-24T03:48:53;100733.59;;;15.58;87.90
75886;BME280;64561;44.018;10.144;2023-04-24T03:51:24;100731.00;;;15.54;87.80
75886;BME280;64561;44.018;10.144;2023-04-24T03:53:55;100734.44;;;15.55;88.15
75886;BME280;64561;44.018;10.144;2023-04-24T03:56:25;100731.00;;;15.56;87.88
75886;BME280;64561;44.018;10.144;2023-04-24T03:58:52;100733.59;;;15.56;87.25
75886;BME280;64561;44.018;10.144;2023-04-24T04:01:18;100734.44;;;15.55;87.41
75886;BME280;64561;44.018;10.144;2023-04-24T04:03:56;100737.03;;;15.53;88.04
75886;BME280;64561;44.018;10.144;2023-04-24T04:06:24;100736.16;;;15.48;88.14
75886;BME280;64561;44.018;10.144;2023-04-24T04:08:53;100736.16;;;15.47;88.58
75886;BME280;64561;44.018;10.144;2023-04-24T04:11:19;100732.69;;;15.43;88.94
75886;BME280;64561;44.018;10.144;2023-04-24T04:13:46;100725.84;;;15.47;88.29
75886;BME280;64561;44.018;10.144;2023-04-24T04:16:17;100728.41;;;15.42;88.79
75886;BME280;64561;44.018;10.144;2023-04-24T04:18:46;100725.81;;;15.39;88.59
75886;BME280;64561;44.018;10.144;2023-04-24T04:21:12;100718.94;;;15.41;89.25
75886;BME280;64561;44.018;10.144;2023-04-24T04:23:40;100722.38;;;15.45;89.24
75886;BME280;64561;44.018;10.144;2023-04-24T04:26:18;100712.94;;;15.41;88.55
75886;BME280;64561;44.018;10.144;2023-04-24T04:29:12;100715.53;;;15.44;88.38
75886;BME280;64561;44.018;10.144;2023-04-24T04:31:42;100711.22;;;15.41;87.06
75886;BME280;64561;44.018;10.144;2023-04-24T04:34:11;100711.22;;;15.38;87.16
75886;BME280;64561;44.018;10.144;2023-04-24T04:36:40;100707.75;;;15.36;86.80
75886;BME280;64561;44.018;10.144;2023-04-24T04:39:28;100706.03;;;15.33;86.44
75886;BME280;64561;44.018;10.144;2023-04-24T04:42:07;100706.03;;;15.35;86.23
75886;BME280;64561;44.018;10.144;2023-04-24T04:44:38;100709.50;;;15.42;85.02
75886;BME280;64561;44.018;10.144;2023-04-24T04:47:09;100702.59;;;15.33;85.27
75886;BME280;64561;44.018;10.144;2023-04-24T04:49:38;100706.03;;;15.32;86.17
75886;BME280;64561;44.018;10.144;2023-04-24T04:52:11;100708.63;;;15.35;85.56
75886;BME280;64561;44.018;10.144;2023-04-24T04:54:38;100705.19;;;15.31;84.62
75886;BME280;64561;44.018;10.144;2023-04-24T04:57:05;100716.34;;;15.29;84.18
75886;BME280;64561;44.018;10.144;2023-04-24T04:59:32;100708.56;;;15.24;84.60
75886;BME280;64561;44.018;10.144;2023-04-24T05:02:05;100707.72;;;15.18;84.90
75886;BME280;64561;44.018;10.144;2023-04-24T05:04:32;100709.41;;;15.19;85.39
75886;BME280;64561;44.018;10.144;2023-04-24T05:06:59;100705.13;;;15.18;84.72
75886;BME280;64561;44.018;10.144;2023-04-24T05:09:28;100700.84;;;15.14;84.23
75886;BME280;64561;44.018;10.144;2023-04-24T05:12:00;100708.53;;;15.12;84.61
75886;BME280;64561;44.018;10.144;2023-04-24T05:14:32;100704.25;;;15.09;84.95
75886;BME280;64561;44.018;10.144;2023-04-24T05:16:59;100702.53;;;15.08;85.42
75886;BME280;64561;44.018;10.144;2023-04-24T05:19:28;100703.38;;;15.04;85.58
75886;BME280;64561;44.018;10.144;2023-04-24T05:21:55;100717.13;;;15.06;85.33
75886;BME280;64561;44.018;10.144;2023-04-24T05:24:22;100720.53;;;15.01;85.31
75886;BME280;64561;44.018;10.144;2023-04-24T05:27:07;100728.28;;;15.02;85.59
75886;BME280;64561;44.018;10.144;2023-04-24T05:29:39;100721.41;;;15.01;85.66
75886;BME280;64561;44.018;10.144;2023-04-24T05:32:08;100723.97;;;15.03;85.61
75886;BME280;64561;44.018;10.144;2023-04-24T05:34:34;100720.53;;;15.07;85.16
75886;BME280;64561;44.018;10.144;2023-04-24T05:37:02;100723.13;;;15.05;84.87
75886;BME280;64561;44.018;10.144;2023-04-24T05:39:29;100723.13;;;15.10;84.48
75886;BME280;64561;44.018;10.144;2023-04-24T05:41:56;100734.31;;;15.09;83.73
75886;BME280;64561;44.018;10.144;2023-04-24T05:44:24;100740.34;;;15.19;84.06
75886;BME280;64561;44.018;10.144;2023-04-24T05:46:52;100743.81;;;15.21;83.58
75886;BME280;64561;44.018;10.144;2023-04-24T05:49:20;100742.09;;;15.24;82.93
75886;BME280;64561;44.018;10.144;2023-04-24T05:51:47;100730.94;;;15.24;83.42
75886;BME280;64561;44.018;10.144;2023-04-24T05:54:16;100735.22;;;15.28;83.85
75886;BME280;64561;44.018;10.144;2023-04-24T05:56:43;100730.94;;;15.27;83.50
75886;BME280;64561;44.018;10.144;2023-04-24T05:59:19;100736.97;;;15.33;83.00
75886;BME280;64561;44.018;10.144;2023-04-24T06:01:47;100722.38;;;15.32;83.21
75886;BME280;64561;44.018;10.144;2023-04-24T06:04:19;100730.09;;;15.34;83.78
75886;BME280;64561;44.018;10.144;2023-04-24T06:06:47;100723.25;;;15.35;83.87
75886;BME280;64561;44.018;10.144;2023-04-24T06:09:17;100721.50;;;15.43;83.36
75886;BME280;64561;44.018;10.144;2023-04-24T06:11:44;100713.78;;;15.38;83.35
75886;BME280;64561;44.018;10.144;2023-04-24T06:14:13;100721.53;;;15.38;83.90
75886;BME280;64561;44.018;10.144;2023-04-24T06:17:12;100705.19;;;15.38;83.03
75886;BME280;64561;44.018;10.144;2023-04-24T06:19:40;100699.13;;;15.31;83.11
75886;BME280;64561;44.018;10.144;2023-04-24T06:22:07;100707.75;;;15.35;83.65
75886;BME280;64561;44.018;10.144;2023-04-24T06:24:36;100711.16;;;15.30;84.21
75886;BME280;64561;44.018;10.144;2023-04-24T06:27:03;100708.59;;;15.29;83.98
75886;BME280;64561;44.018;10.144;2023-04-24T06:29:30;100715.50;;;15.31;83.70
75886;BME280;64561;44.018;10.144;2023-04-24T06:31:58;100717.22;;;15.32;83.33
75886;BME280;64561;44.018;10.144;2023-04-24T06:34:25;100729.22;;;15.30;83.45
75886;BME280;64561;44.018;10.144;2023-04-24T06:36:52;100730.97;;;15.31;82.98
75886;BME280;64561;44.018;10.144;2023-04-24T06:39:19;100734.38;;;15.33;82.90
75886;BME280;64561;44.018;10.144;2023-04-24T06:41:45;100731.81;;;15.33;83.15
75886;BME280;64561;44.018;10.144;2023-04-24T06:44:18;100736.97;;;15.40;82.74
75886;BME280;64561;44.018;10.144;2023-04-24T06:46:45;100743.03;;;15.45;83.15
75886;BME280;64561;44.018;10.144;2023-04-24T06:49:12;100742.16;;;15.52;82.88
75886;BME280;64561;44.018;10.144;2023-04-24T06:51:42;100749.06;;;15.54;81.37
75886;BME280;64561;44.018;10.144;2023-04-24T06:54:09;100750.78;;;15.57;80.68
75886;BME280;64561;44.018;10.144;2023-04-24T06:56:36;100747.34;;;15.60;79.73
75886;BME280;64561;44.018;10.144;2023-04-24T06:59:04;100750.81;;;15.62;78.89
75886;BME280;64561;44.018;10.144;2023-04-24T07:01:30;100747.34;;;15.60;79.61
75886;BME280;64561;44.018;10.144;2023-04-24T07:03:57;100734.44;;;15.61;80.04
75886;BME280;64561;44.018;10.144;2023-04-24T07:06:24;100734.44;;;15.64;80.32
75886;BME280;64561;44.018;10.144;2023-04-24T07:08:54;100731.91;;;15.69;78.36
75886;BME280;64561;44.018;10.144;2023-04-24T07:11:22;100723.31;;;15.76;78.98
75886;BME280;64561;44.018;10.144;2023-04-24T07:13:48;100716.47;;;15.83;77.91
75886;BME280;64561;44.018;10.144;2023-04-24T07:16:15;100715.59;;;15.91;77.01
75886;BME280;64561;44.018;10.144;2023-04-24T07:18:42;100706.97;;;15.94;77.60
75886;BME280;64561;44.018;10.144;2023-04-24T07:21:09;100696.66;;;16.09;77.06
75886;BME280;64561;44.018;10.144;2023-04-24T07:23:36;100701.81;;;16.15;76.31
75886;BME280;64561;44.018;10.144;2023-04-24T07:26:03;100700.09;;;16.17;75.89
75886;BME280;64561;44.018;10.144;2023-04-24T07:28:30;100698.38;;;16.13;75.85
75886;BME280;64561;44.018;10.144;2023-04-24T07:30:58;100685.47;;;16.03;74.50
75886;BME280;64561;44.018;10.144;2023-04-24T07:33:26;100703.56;;;16.07;74.44
75886;BME280;64561;44.018;10.144;2023-04-24T07:35:53;100702.69;;;16.02;75.12
75886;BME280;64561;44.018;10.144;2023-04-24T07:38:20;100707.88;;;16.00;75.04
75886;BME280;64561;44.018;10.144;2023-04-24T07:40:48;100716.47;;;16.01;74.62
75886;BME280;64561;44.018;10.144;2023-04-24T07:43:15;100725.06;;;16.08;74.42
75886;BME280;64561;44.018;10.144;2023-04-24T07:45:42;100713.88;;;16.19;75.96
75886;BME280;64561;44.018;10.144;2023-04-24T07:48:09;100709.53;;;16.41;74.60
75886;BME280;64561;44.018;10.144;2023-04-24T07:50:37;100712.97;;;16.43;72.97
75886;BME280;64561;44.018;10.144;2023-04-24T07:53:04;100710.41;;;16.40;73.01
75886;BME280;64561;44.018;10.144;2023-04-24T07:55:31;100707.81;;;16.43;73.02
75886;BME280;64561;44.018;10.144;2023-04-24T07:57:58;100702.63;;;16.42;73.21
75886;BME280;64561;44.018;10.144;2023-04-24T08:00:25;100706.06;;;16.42;72.30
75886;BME280;64561;44.018;10.144;2023-04-24T08:02:51;100710.38;;;16.42;71.14
75886;BME280;64561;44.018;10.144;2023-04-24T08:05:18;100717.28;;;16.43;72.39
75886;BME280;64561;44.018;10.144;2023-04-24T08:07:46;100715.56;;;16.43;72.81
75886;BME280;64561;44.018;10.144;2023-04-24T08:10:15;100728.47;;;16.43;72.97
75886;BME280;64561;44.018;10.144;2023-04-24T08:12:41;100728.47;;;16.39;74.16
75886;BME280;64561;44.018;10.144;2023-04-24T08:15:09;100715.53;;;16.48;75.18
75886;BME280;64561;44.018;10.144;2023-04-24T08:17:36;100712.06;;;16.64;76.58
75886;BME280;64561;44.018;10.144;2023-04-24T08:20:03;100715.50;;;16.79;76.48
75886;BME280;64561;44.018;10.144;2023-04-24T08:22:31;100726.66;;;16.85;74.43
75886;BME280;64561;44.018;10.144;2023-04-24T08:24:59;100729.22;;;16.93;74.14
75886;BME280;64561;44.018;10.144;2023-04-24T08:27:26;100730.94;;;16.94;72.26
75886;BME280;64561;44.018;10.144;2023-04-24T08:29:54;100730.97;;;16.88;71.76
75886;BME280;64561;44.018;10.144;2023-04-24T08:32:21;100731.00;;;16.82;72.82
75886;BME280;64561;44.018;10.144;2023-04-24T08:34:48;100739.56;;;16.90;72.39
75886;BME280;64561;44.018;10.144;2023-04-24T08:37:15;100737.81;;;16.90;73.51
75886;BME280;64561;44.018;10.144;2023-04-24T08:39:42;100746.41;;;17.02;75.52
75886;BME280;64561;44.018;10.144;2023-04-24T08:42:11;100735.19;;;17.07;73.19
75886;BME280;64561;44.018;10.144;2023-04-24T08:44:40;100733.44;;;17.16;72.90
75886;BME280;64561;44.018;10.144;2023-04-24T08:47:07;100729.09;;;17.21;70.65
75886;BME280;64561;44.018;10.144;2023-04-24T08:49:36;100747.19;;;17.25;70.34
75886;BME280;64561;44.018;10.144;2023-04-24T08:52:07;100741.19;;;17.19;71.24
75886;BME280;64561;44.018;10.144;2023-04-24T08:54:35;100747.16;;;17.30;71.37
75886;BME280;64561;44.018;10.144;2023-04-24T08:57:03;100737.69;;;17.26;70.34
75886;BME280;64561;44.018;10.144;2023-04-24T08:59:31;100741.09;;;17.34;70.41
75886;BME280;64561;44.018;10.144;2023-04-24T09:01:58;100748.84;;;17.35;71.17
75886;BME280;64561;44.018;10.144;2023-04-24T09:04:25;100748.84;;;17.32;70.90
75886;BME280;64561;44.018;10.144;2023-04-24T09:06:57;100756.53;;;17.45;71.03
75886;BME280;64561;44.018;10.144;2023-04-24T09:09:25;100760.00;;;17.48;73.29
75886;BME280;64561;44.018;10.144;2023-04-24T09:11:52;100764.28;;;17.54;72.05
75886;BME280;64561;44.018;10.144;2023-04-24T09:14:22;100766.84;;;17.55;72.56
75886;BME280;64561;44.018;10.144;2023-04-24T09:16:50;100768.53;;;17.61;70.95
75886;BME280;64561;44.018;10.144;2023-04-24T09:19:17;100765.97;;;17.58;72.56
75886;BME280;64561;44.018;10.144;2023-04-24T09:21:47;100765.97;;;17.56;72.79
75886;BME280;64561;44.018;10.144;2023-04-24T09:24:17;100766.84;;;17.60;72.57
75886;BME280;64561;44.018;10.144;2023-04-24T09:26:45;100770.28;;;17.60;71.55
75886;BME280;64561;44.018;10.144;2023-04-24T09:29:16;100776.31;;;17.61;72.54
75886;BME280;64561;44.018;10.144;2023-04-24T09:31:46;100775.38;;;17.68;70.66
75886;BME280;64561;44.018;10.144;2023-04-24T09:34:14;100761.63;;;17.65;69.63
75886;BME280;64561;44.018;10.144;2023-04-24T09:36:43;100763.31;;;17.69;68.88
75886;BME280;64561;44.018;10.144;2023-04-24T09:39:13;100760.72;;;17.70;69.94
75886;BME280;64561;44.018;10.144;2023-04-24T09:46:46;100762.41;;;17.80;69.95
75886;BME280;64561;44.018;10.144;2023-04-24T09:49:22;100759.78;;;17.85;70.83
75886;BME280;64561;44.018;10.144;2023-04-24T09:51:49;100752.84;;;17.89;70.81
75886;BME280;64561;44.018;10.144;2023-04-24T09:54:20;100743.41;;;17.85;69.71
75886;BME280;64561;44.018;10.144;2023-04-24T09:56:50;100746.00;;;17.83;70.08
75886;BME280;64561;44.018;10.144;2023-04-24T09:59:18;100741.53;;;17.99;68.96
75886;BME280;64561;44.018;10.144;2023-04-24T10:01:46;100737.19;;;18.04;69.31
75886;BME280;64561;44.018;10.144;2023-04-24T10:04:23;100742.31;;;18.12;70.31
75886;BME280;64561;44.018;10.144;2023-04-24T10:06:53;100745.69;;;18.21;69.41
75886;BME280;64561;44.018;10.144;2023-04-24T10:09:24;100749.91;;;18.32;72.06
75886;BME280;64561;44.018;10.144;2023-04-24T10:11:53;100749.69;;;18.55;66.46
75886;BME280;64561;44.018;10.144;2023-04-24T10:14:22;100753.25;;;18.43;67.94
75886;BME280;64561;44.018;10.144;2023-04-24T10:16:50;100754.03;;;18.52;70.14
75886;BME280;64561;44.018;10.144;2023-04-24T10:19:19;100751.38;;;18.60;66.92
75886;BME280;64561;44.018;10.144;2023-04-24T10:21:46;100752.16;;;18.67;66.08
75886;BME280;64561;44.018;10.144;2023-04-24T10:24:15;100747.00;;;18.64;67.87
75886;BME280;64561;44.018;10.144;2023-04-24T10:26:43;100748.75;;;18.62;69.24
75886;BME280;64561;44.018;10.144;2023-04-24T10:29:12;100756.44;;;18.68;67.71
75886;BME280;64561;44.018;10.144;2023-04-24T10:31:39;100760.81;;;18.64;67.00
75886;BME280;64561;44.018;10.144;2023-04-24T10:34:08;100770.25;;;18.70;67.54
75886;BME280;64561;44.018;10.144;2023-04-24T10:36:38;100771.13;;;18.72;68.56
75886;BME280;64561;44.018;10.144;2023-04-24T10:39:10;100771.94;;;18.77;63.18
75886;BME280;64561;44.018;10.144;2023-04-24T10:41:38;100773.72;;;18.73;64.23
75886;BME280;64561;44.018;10.144;2023-04-24T10:44:15;100775.53;;;18.62;65.98
75886;BME280;64561;44.018;10.144;2023-04-24T10:46:44;100779.84;;;18.62;68.48
75886;BME280;64561;44.018;10.144;2023-04-24T10:49:11;100787.56;;;18.68;68.35
75886;BME280;64561;44.018;10.144;2023-04-24T10:51:49;100794.41;;;18.77;65.29
75886;BME280;64561;44.018;10.144;2023-04-24T10:59:39;100797.03;;;18.73;65.28
75886;BME280;64561;44.018;10.144;2023-04-24T11:02:08;100795.31;;;18.76;66.70
75886;BME280;64561;44.018;10.144;2023-04-24T11:04:35;100786.69;;;18.67;65.77
75886;BME280;64561;44.018;10.144;2023-04-24T11:07:03;100795.25;;;18.80;67.89
75886;BME280;64561;44.018;10.144;2023-04-24T11:09:31;100795.19;;;18.85;66.90
75886;BME280;64561;44.018;10.144;2023-04-24T11:12:05;100798.50;;;18.98;67.75
75886;BME280;64561;44.018;10.144;2023-04-24T11:17:36;100799.09;;;19.23;67.18
75886;BME280;64561;44.018;10.144;2023-04-24T11:20:09;100796.44;;;19.29;66.67
75886;BME280;64561;44.018;10.144;2023-04-24T11:22:53;100805.97;;;19.27;66.90
75886;BME280;64561;44.018;10.144;2023-04-24T11:25:24;100818.13;;;19.23;65.77
75886;BME280;64561;44.018;10.144;2023-04-24T11:28:03;100814.78;;;19.13;67.86
75886;BME280;64561;44.018;10.144;2023-04-24T11:30:31;100819.13;;;19.10;67.82
75886;BME280;64561;44.018;10.144;2023-04-24T11:33:04;100820.81;;;19.12;66.93
75886;BME280;64561;44.018;10.144;2023-04-24T11:35:36;100823.50;;;19.08;65.87
75886;BME280;64561;44.018;10.144;2023-04-24T11:38:06;100833.88;;;19.06;65.74
75886;BME280;64561;44.018;10.144;2023-04-24T11:40:49;100825.19;;;19.07;67.49
75886;BME280;64561;44.018;10.144;2023-04-24T11:43:16;100830.34;;;19.10;67.05
75886;BME280;64561;44.018;10.144;2023-04-24T11:45:49;100832.97;;;19.09;69.60
75886;BME280;64561;44.018;10.144;2023-04-24T11:48:20;100825.16;;;19.12;70.13
75886;BME280;64561;44.018;10.144;2023-04-24T11:50:52;100827.75;;;19.13;69.96
75886;BME280;64561;44.018;10.144;2023-04-24T11:53:20;100821.72;;;19.11;68.41
75886;BME280;64561;44.018;10.144;2023-04-24T11:55:48;100825.13;;;19.16;68.47
75886;BME280;64561;44.018;10.144;2023-04-24T11:58:20;100820.00;;;19.09;67.13
75886;BME280;64561;44.018;10.144;2023-04-24T12:00:56;100828.00;;;18.90;68.71
75886;BME280;64561;44.018;10.144;2023-04-24T12:03:23;100821.22;;;18.74;70.15
75886;BME280;64561;44.018;10.144;2023-04-24T12:05:50;100824.69;;;18.78;71.25
75886;BME280;64561;44.018;10.144;2023-04-24T12:08:27;100834.03;;;18.91;72.64
75886;BME280;64561;44.018;10.144;2023-04-24T12:10:55;100835.56;;;19.07;74.37
75886;BME280;64561;44.018;10.144;2023-04-24T12:13:21;100837.28;;;19.11;69.54
75886;BME280;64561;44.018;10.144;2023-04-24T12:15:50;100842.63;;;18.96;70.13
75886;BME280;64561;44.018;10.144;2023-04-24T12:18:17;100828.00;;;18.89;72.85
75886;BME280;64561;44.018;10.144;2023-04-24T12:20:44;100832.31;;;18.90;70.23
75886;BME280;64561;44.018;10.144;2023-04-24T12:23:11;100833.13;;;18.96;69.93
75886;BME280;64561;44.018;10.144;2023-04-24T12:25:38;100845.28;;;18.90;68.92
75886;BME280;64561;44.018;10.144;2023-04-24T12:30:42;100840.81;;;19.01;73.24
75886;BME280;64561;44.018;10.144;2023-04-24T12:33:11;100832.03;;;19.17;73.55
75886;BME280;64561;44.018;10.144;2023-04-24T12:35:40;100843.84;;;19.40;73.01
75886;BME280;64561;44.018;10.144;2023-04-24T12:38:15;100848.06;;;19.49;72.33
75886;BME280;64561;44.018;10.144;2023-04-24T12:40:43;100851.72;;;19.34;68.42
75886;BME280;64561;44.018;10.144;2023-04-24T12:43:19;100849.44;;;19.06;69.46
75886;BME280;64561;44.018;10.144;2023-04-24T12:45:49;100844.50;;;18.82;69.18
75886;BME280;64561;44.018;10.144;2023-04-24T12:48:16;100850.66;;;18.68;69.09
75886;BME280;64561;44.018;10.144;2023-04-24T12:50:43;100852.34;;;18.74;69.28
75886;BME280;64561;44.018;10.144;2023-04-24T12:53:12;100860.06;;;18.82;69.18
75886;BME280;64561;44.018;10.144;2023-04-24T12:55:39;100848.81;;;18.84;66.92
75886;BME280;64561;44.018;10.144;2023-04-24T12:58:07;100855.69;;;18.85;68.47
75886;BME280;64561;44.018;10.144;2023-04-24T13:00:34;100848.72;;;18.93;66.68
75886;BME280;64561;44.018;10.144;2023-04-24T13:03:02;100842.78;;;18.79;65.23
75886;BME280;64561;44.018;10.144;2023-04-24T13:05:30;100851.38;;;18.87;65.36